createdAt,value
2022-09-01T00:01:42.155Z,30.00
2022-09-01T00:04:12.818Z,29.85
2022-09-01T00:06:40.726Z,30.14
2022-09-01T00:09:10.404Z,30.05
2022-09-01T00:11:38.274Z,30.07
2022-09-01T00:14:06.944Z,30.00
2022-09-01T00:16:48.773Z,30.08
2022-09-01T00:19:19.120Z,30.19
2022-09-01T00:21:46.478Z,29.96
2022-09-01T00:24:16.154Z,30.10
2022-09-01T00:26:43.416Z,30.15
2022-09-01T00:29:10.423Z,30.22
2022-09-01T00:31:37.720Z,30.43
2022-09-01T00:34:04.760Z,30.33
2022-09-01T00:36:31.565Z,30.01
2022-09-01T00:38:58.118Z,29.97
2022-09-01T00:41:26.983Z,30.23
2022-09-01T00:43:57.028Z,29.98
2022-09-01T00:46:30.102Z,30.43
2022-09-01T00:49:34.967Z,30.54
2022-09-01T00:52:19.454Z,30.28
2022-09-01T00:54:49.866Z,30.19
2022-09-01T00:57:17.030Z,30.50
2022-09-01T00:59:49.772Z,30.19
2022-09-01T01:02:16.513Z,30.17
2022-09-01T01:04:43.776Z,30.05
2022-09-01T01:07:12.015Z,30.21
2022-09-01T01:09:42.038Z,30.48
2022-09-01T01:12:13.711Z,30.28
2022-09-01T01:14:41.681Z,30.51
2022-09-01T01:17:12.648Z,30.36
2022-09-01T01:20:02.781Z,30.38
2022-09-01T01:23:02.566Z,30.35
2022-09-01T01:25:48.778Z,30.40
2022-09-01T01:28:33.603Z,30.35
2022-09-01T01:31:11.919Z,30.19
2022-09-01T01:33:49.188Z,30.67
2022-09-01T01:36:31.097Z,30.21
2022-09-01T01:39:01.914Z,30.22
2022-09-01T01:41:32.901Z,30.44
2022-09-01T01:44:04.267Z,30.39
2022-09-01T01:46:34.156Z,30.47
2022-09-01T01:49:02.744Z,30.75
2022-09-01T01:51:31.837Z,30.50
2022-09-01T01:54:01.747Z,30.70
2022-09-01T01:56:28.583Z,30.48
2022-09-01T01:58:57.666Z,30.47
2022-09-01T02:01:28.782Z,30.60
2022-09-01T02:03:57.721Z,30.53
2022-09-01T02:06:28.059Z,30.75
2022-09-01T02:08:58.023Z,30.73
2022-09-01T02:11:27.858Z,30.84
2022-09-01T02:13:58.917Z,30.43
2022-09-01T02:16:28.099Z,31.02
2022-09-01T02:18:54.708Z,30.50
2022-09-01T02:21:23.759Z,30.80
2022-09-01T02:24:00.350Z,30.87
2022-09-01T02:26:32.137Z,30.73
2022-09-01T02:29:04.554Z,30.41
2022-09-01T02:31:35.864Z,30.96
2022-09-01T02:34:03.778Z,30.57
2022-09-01T02:36:32.858Z,30.79
2022-09-01T02:38:59.404Z,30.54
2022-09-01T02:41:29.061Z,30.70
2022-09-01T02:44:02.211Z,30.83
2022-09-01T02:46:29.659Z,30.85
2022-09-01T02:48:56.215Z,30.52
2022-09-01T02:51:25.505Z,30.58
2022-09-01T02:53:53.272Z,30.57
2022-09-01T02:56:27.431Z,30.53
2022-09-01T02:58:55.221Z,30.56
2022-09-01T03:01:27.143Z,30.98
2022-09-01T03:03:56.877Z,30.86
2022-09-01T03:06:24.669Z,30.59
2022-09-01T03:08:59.609Z,30.56
2022-09-01T03:11:28.583Z,30.87
2022-09-01T03:13:55.405Z,30.98
2022-09-01T03:16:25.234Z,30.85
2022-09-01T03:18:52.699Z,30.89
2022-09-01T03:21:20.641Z,31.00
2022-09-01T03:23:48.432Z,30.94
2022-09-01T03:26:18.514Z,31.16
2022-09-01T03:28:45.859Z,30.93
2022-09-01T03:31:12.369Z,30.98
2022-09-01T03:33:38.834Z,31.15
2022-09-01T03:36:07.141Z,30.98
2022-09-01T03:38:43.833Z,31.09
2022-09-01T03:41:12.997Z,31.21
2022-09-01T03:43:39.635Z,31.22
2022-09-01T03:46:21.444Z,31.16
2022-09-01T03:48:55.014Z,31.04
2022-09-01T03:51:23.225Z,30.97
2022-09-01T03:53:54.476Z,30.93
2022-09-01T03:56:27.378Z,31.40
2022-09-01T03:58:56.798Z,30.91
2022-09-01T04:01:24.869Z,31.25
2022-09-01T04:03:52.249Z,31.45
2022-09-01T04:06:21.250Z,31.44
2022-09-01T04:08:47.949Z,31.42
2022-09-01T04:11:18.802Z,31.21
2022-09-01T04:13:47.272Z,31.49
2022-09-01T04:16:39.807Z,31.04
2022-09-01T04:19:15.950Z,31.32
2022-09-01T04:21:44.106Z,31.50
2022-09-01T04:24:13.323Z,31.36
2022-09-01T04:26:41.050Z,31.38
2022-09-01T04:29:09.130Z,31.42
2022-09-01T04:31:38.642Z,31.61
2022-09-01T04:34:13.753Z,31.66
2022-09-01T04:36:43.549Z,31.67
2022-09-01T04:39:12.394Z,31.43
2022-09-01T04:41:45.958Z,31.43
2022-09-01T04:44:16.772Z,31.71
2022-09-01T04:46:46.336Z,31.81
2022-09-01T04:49:19.257Z,31.96
2022-09-01T04:51:53.304Z,32.24
2022-09-01T04:54:22.594Z,32.31
2022-09-01T04:56:51.192Z,32.54
2022-09-01T04:59:21.713Z,33.00
2022-09-01T05:01:50.320Z,33.48
2022-09-01T05:04:21.291Z,33.16
2022-09-01T05:06:50.968Z,33.06
2022-09-01T05:09:19.940Z,33.35
2022-09-01T05:11:47.139Z,33.01
2022-09-01T05:14:13.848Z,33.55
2022-09-01T05:16:43.887Z,33.41
2022-09-01T05:19:17.535Z,33.44
2022-09-01T05:21:46.106Z,33.23
2022-09-01T05:24:21.836Z,33.58
2022-09-01T05:26:50.773Z,33.22
2022-09-01T05:29:17.749Z,33.24
2022-09-01T05:31:47.055Z,33.44
2022-09-01T05:34:20.018Z,32.99
2022-09-01T05:36:50.499Z,33.19
2022-09-01T05:39:17.671Z,33.39
2022-09-01T05:41:45.903Z,32.96
2022-09-01T05:44:14.076Z,33.07
2022-09-01T05:46:40.664Z,32.67
2022-09-01T05:49:13.533Z,33.04
2022-09-01T05:51:45.635Z,32.63
2022-09-01T05:54:14.361Z,32.88
2022-09-01T05:56:44.013Z,32.84
2022-09-01T05:59:28.348Z,32.91
2022-09-01T06:01:55.838Z,32.72
2022-09-01T06:04:27.784Z,32.99
2022-09-01T06:07:06.463Z,32.78
2022-09-01T06:09:38.824Z,32.45
2022-09-01T06:12:07.003Z,32.88
2022-09-01T06:14:33.730Z,32.75
2022-09-01T06:17:00.891Z,32.68
2022-09-01T06:19:27.348Z,32.79
2022-09-01T06:21:53.811Z,32.50
2022-09-01T06:24:20.372Z,32.70
2022-09-01T06:26:46.963Z,32.23
2022-09-01T06:29:15.567Z,32.62
2022-09-01T06:31:43.405Z,32.51
2022-09-01T06:34:17.631Z,32.71
2022-09-01T06:36:45.789Z,32.78
2022-09-01T06:39:19.689Z,32.35
2022-09-01T06:41:52.911Z,32.26
2022-09-01T06:44:23.023Z,32.49
2022-09-01T06:46:53.516Z,32.56
2022-09-01T06:49:21.493Z,32.57
2022-09-01T06:51:51.692Z,32.47
2022-09-01T06:54:21.101Z,32.56
2022-09-01T06:59:37.063Z,32.66
2022-09-01T07:02:04.827Z,32.54
2022-09-01T07:04:32.493Z,32.49
2022-09-01T07:07:01.838Z,32.49
2022-09-01T07:10:05.940Z,32.19
2022-09-01T07:12:34.275Z,32.58
2022-09-01T07:17:53.997Z,32.26
2022-09-01T07:20:23.903Z,32.70
2022-09-01T07:23:09.412Z,32.42
2022-09-01T07:26:01.390Z,32.15
2022-09-01T07:28:39.861Z,32.85
2022-09-01T07:39:48.615Z,31.90
2022-09-01T07:39:57.654Z,32.60
2022-09-01T07:47:56.588Z,32.22
2022-09-01T07:51:34.356Z,32.44
2022-09-01T07:53:12.474Z,31.96
2022-09-01T07:55:43.966Z,32.04
2022-09-01T07:58:11.812Z,32.30
2022-09-01T08:00:39.914Z,32.16
2022-09-01T08:03:06.849Z,32.24
2022-09-01T08:05:34.049Z,31.97
2022-09-01T08:08:01.237Z,31.99
2022-09-01T08:10:28.254Z,31.94
2022-09-01T08:12:57.778Z,32.23
2022-09-01T08:16:06.416Z,31.99
2022-09-01T08:18:14.202Z,31.84
2022-09-01T08:20:45.578Z,32.04
2022-09-01T08:23:15.745Z,32.26
2022-09-01T08:25:46.124Z,31.85
2022-09-01T08:28:14.969Z,32.06
2022-09-01T08:30:52.185Z,31.98
2022-09-01T08:33:19.591Z,32.26
2022-09-01T08:35:48.358Z,31.81
2022-09-01T08:38:15.599Z,31.91
2022-09-01T08:40:43.774Z,31.73
2022-09-01T08:43:32.571Z,31.71
2022-09-01T08:46:07.566Z,32.01
2022-09-01T08:51:40.807Z,31.84
2022-09-01T08:54:29.685Z,31.84
2022-09-01T08:57:03.623Z,31.81
2022-09-01T08:59:30.190Z,32.10
2022-09-01T09:02:21.997Z,31.97
2022-09-01T09:04:51.123Z,31.78
2022-09-01T09:07:43.827Z,31.69
2022-09-01T09:10:19.391Z,32.06
2022-09-01T09:12:57.919Z,32.08
2022-09-01T09:15:43.167Z,32.16
2022-09-01T09:18:55.638Z,32.03
2022-09-01T09:21:44.197Z,32.13
2022-09-01T09:24:10.940Z,31.76
2022-09-01T09:26:44.897Z,31.95
2022-09-01T09:29:11.553Z,31.98
2022-09-01T09:31:43.773Z,31.86
2022-09-01T09:34:33.051Z,31.70
2022-09-01T09:37:24.563Z,31.77
2022-09-01T09:40:11.787Z,31.91
2022-09-01T09:42:41.062Z,32.00
2022-09-01T09:45:24.711Z,31.76
2022-09-01T09:47:53.384Z,31.97
2022-09-01T09:50:33.700Z,32.31
2022-09-01T09:53:17.020Z,32.11
2022-09-01T09:56:18.120Z,31.81
2022-09-01T09:58:47.159Z,31.58
2022-09-01T10:01:29.616Z,31.71
2022-09-01T10:04:00.158Z,31.88
2022-09-01T10:06:38.205Z,31.92
2022-09-01T10:09:22.924Z,31.96
2022-09-01T10:11:52.692Z,31.80
2022-09-01T10:14:35.382Z,31.80
2022-09-01T10:17:16.279Z,31.59
2022-09-01T10:19:50.956Z,31.93
2022-09-01T10:22:17.487Z,32.12
2022-09-01T10:24:49.958Z,32.04
2022-09-01T10:27:24.530Z,32.02
2022-09-01T10:30:13.922Z,31.80
2022-09-01T10:32:55.995Z,31.63
2022-09-01T10:35:29.978Z,32.07
2022-09-01T10:38:01.172Z,31.84
2022-09-01T10:40:31.211Z,31.93
2022-09-01T10:43:19.677Z,31.94
2022-09-01T10:45:48.862Z,31.70
2022-09-01T10:48:31.116Z,31.90
2022-09-01T10:51:18.349Z,31.65
2022-09-01T10:53:52.096Z,32.12
2022-09-01T10:56:43.621Z,31.67
2022-09-01T10:59:35.601Z,31.56
2022-09-01T11:02:36.885Z,31.67
2022-09-01T11:04:59.333Z,31.73
2022-09-01T11:07:50.357Z,31.67
2022-09-01T11:10:42.460Z,32.02
2022-09-01T11:13:34.760Z,31.80
2022-09-01T11:16:49.659Z,31.59
2022-09-01T11:19:44.428Z,31.92
2022-09-01T11:22:21.196Z,31.54
2022-09-01T11:25:41.327Z,31.60
2022-09-01T11:28:07.828Z,31.60
2022-09-01T11:30:53.024Z,31.78
2022-09-01T11:33:42.152Z,32.02
2022-09-01T11:36:11.443Z,31.62
2022-09-01T11:38:53.183Z,31.79
2022-09-01T11:41:33.025Z,31.60
2022-09-01T11:44:02.544Z,31.71
2022-09-01T11:46:32.963Z,31.75
2022-09-01T11:49:08.068Z,31.64
2022-09-01T11:51:48.281Z,31.80
2022-09-01T11:54:15.859Z,31.88
2022-09-01T11:56:42.462Z,31.72
2022-09-01T11:59:09.064Z,31.57
2022-09-01T12:01:38.563Z,31.67
2022-09-01T12:04:27.684Z,31.70
2022-09-01T12:06:58.095Z,31.82
2022-09-01T12:09:34.136Z,31.74
2022-09-01T12:12:01.573Z,31.71
2022-09-01T12:14:38.942Z,31.60
2022-09-01T12:17:20.422Z,31.74
2022-09-01T12:19:46.884Z,31.66
2022-09-01T12:22:19.895Z,31.55
2022-09-01T12:24:53.070Z,31.13
2022-09-01T12:27:23.274Z,31.08
2022-09-01T12:29:50.777Z,30.81
2022-09-01T12:32:17.857Z,30.91
2022-09-01T12:35:01.515Z,30.87
2022-09-01T12:37:28.930Z,30.91
2022-09-01T12:39:58.663Z,30.63
2022-09-01T12:42:41.448Z,30.53
2022-09-01T12:45:11.224Z,30.62
2022-09-01T12:47:37.673Z,30.46
2022-09-01T12:50:27.266Z,30.52
2022-09-01T12:53:00.198Z,30.52
2022-09-01T12:58:21.690Z,30.52
2022-09-01T13:01:03.187Z,30.47
2022-09-01T13:03:30.279Z,30.64
2022-09-01T13:05:59.962Z,30.58
2022-09-01T13:08:31.019Z,30.66
2022-09-01T13:11:11.247Z,30.60
2022-09-01T13:13:38.138Z,30.61
2022-09-01T13:16:13.031Z,30.51
2022-09-01T13:21:30.354Z,30.46
2022-09-01T13:23:57.232Z,30.63
2022-09-01T13:26:24.094Z,30.53
2022-09-01T13:28:51.613Z,30.79
2022-09-01T13:31:34.295Z,30.71
2022-09-01T13:34:10.670Z,30.50
2022-09-01T13:36:49.628Z,30.50
2022-09-01T13:39:19.230Z,30.47
2022-09-01T13:41:47.227Z,30.66
2022-09-01T13:44:14.363Z,30.81
2022-09-01T13:50:05.029Z,30.64
2022-09-01T13:52:14.727Z,30.51
2022-09-01T13:54:41.965Z,30.59
2022-09-01T13:57:08.458Z,30.30
2022-09-01T13:59:34.926Z,30.44
2022-09-01T14:02:01.639Z,30.46
2022-09-01T14:04:28.296Z,30.46
2022-09-01T14:06:55.172Z,30.33
2022-09-01T14:09:21.788Z,30.66
2022-09-01T14:11:48.892Z,30.53
2022-09-01T14:14:15.331Z,30.42
2022-09-01T14:16:41.873Z,30.37
2022-09-01T14:19:08.369Z,30.48
2022-09-01T14:21:34.835Z,30.32
2022-09-01T14:24:01.486Z,30.42
2022-09-01T14:26:28.132Z,30.30
2022-09-01T14:28:55.058Z,30.19
2022-09-01T14:31:21.907Z,30.10
2022-09-01T14:33:49.121Z,30.09
2022-09-01T14:36:25.323Z,29.99
2022-09-01T14:38:52.981Z,30.24
2022-09-01T14:41:23.980Z,30.16
2022-09-01T14:44:00.959Z,29.83
2022-09-01T14:46:34.223Z,30.29
2022-09-01T14:49:02.155Z,29.85
2022-09-01T14:54:16.783Z,30.06
2022-09-01T14:57:27.261Z,29.80
2022-09-01T14:59:29.678Z,29.77
2022-09-01T15:01:56.203Z,29.73
2022-09-01T15:04:22.909Z,29.64
2022-09-01T15:06:49.466Z,29.44
2022-09-01T15:09:19.120Z,29.44
2022-09-01T15:11:46.323Z,29.36
2022-09-01T15:14:12.897Z,29.12
2022-09-01T15:16:39.657Z,29.39
2022-09-01T15:19:10.958Z,29.28
2022-09-01T15:21:39.053Z,29.02
2022-09-01T15:24:07.206Z,29.10
2022-09-01T15:26:35.040Z,28.93
2022-09-01T15:29:02.026Z,29.03
2022-09-01T15:31:32.453Z,29.32
2022-09-01T15:34:02.127Z,29.33
2022-09-01T15:36:29.794Z,29.26
2022-09-01T15:38:57.830Z,29.25
2022-09-01T15:41:30.258Z,28.94
2022-09-01T15:43:58.019Z,29.43
2022-09-01T15:46:32.567Z,29.26
2022-09-01T15:49:01.096Z,29.23
2022-09-01T15:51:42.116Z,29.18
2022-09-01T15:54:12.836Z,29.42
2022-09-01T15:56:40.047Z,29.42
2022-09-01T15:59:07.686Z,29.46
2022-09-01T16:01:38.894Z,29.59
2022-09-01T16:04:07.634Z,29.61
2022-09-01T16:06:35.170Z,29.29
2022-09-01T16:09:02.264Z,29.66
2022-09-01T16:11:28.759Z,29.64
2022-09-01T16:13:55.911Z,29.67
2022-09-01T16:16:36.266Z,29.98
2022-09-01T16:19:19.230Z,29.78
2022-09-01T16:21:57.946Z,29.79
2022-09-01T16:24:25.292Z,29.97
2022-09-01T16:26:51.884Z,29.93
2022-09-01T16:29:27.587Z,29.88
2022-09-01T16:31:55.806Z,30.04
2022-09-01T16:34:26.231Z,30.04
2022-09-01T16:37:07.127Z,30.01
2022-09-01T16:39:33.533Z,30.15
2022-09-01T16:42:19.075Z,30.11
2022-09-01T16:45:01.876Z,30.18
2022-09-01T16:47:34.506Z,30.24
2022-09-01T16:50:25.370Z,30.19
2022-09-01T16:53:04.117Z,30.29
2022-09-01T16:55:41.407Z,30.34
2022-09-01T16:58:31.741Z,30.50
2022-09-01T17:01:42.298Z,30.68
2022-09-01T17:04:17.589Z,30.64
2022-09-01T17:06:57.143Z,30.77
2022-09-01T17:09:34.560Z,30.79
2022-09-01T17:12:12.044Z,30.78
2022-09-01T17:14:44.116Z,30.87
2022-09-01T17:17:14.292Z,30.81
2022-09-01T17:19:41.211Z,30.73
2022-09-01T17:22:12.448Z,30.84
2022-09-01T17:25:18.847Z,30.94
2022-09-01T17:27:52.938Z,30.72
2022-09-01T17:30:19.954Z,30.74
2022-09-01T17:33:05.846Z,31.07
2022-09-01T17:36:23.961Z,30.85
2022-09-01T17:39:22.742Z,30.73
2022-09-01T17:42:11.187Z,30.79
2022-09-01T17:44:55.334Z,30.96
2022-09-01T17:47:33.224Z,30.88
2022-09-01T17:50:31.976Z,30.89
2022-09-01T17:53:15.530Z,31.16
2022-09-01T17:55:50.866Z,31.25
2022-09-01T17:58:38.910Z,31.08
2022-09-01T18:01:15.714Z,31.28
2022-09-01T18:04:23.844Z,31.21
2022-09-01T18:06:53.304Z,31.21
2022-09-01T18:09:24.372Z,31.12
2022-09-01T18:11:56.795Z,31.11
2022-09-01T18:14:45.744Z,31.27
2022-09-01T18:17:25.063Z,31.13
2022-09-01T18:20:04.030Z,31.16
2022-09-01T18:22:39.019Z,31.09
2022-09-01T18:25:09.147Z,31.07
2022-09-01T18:27:36.752Z,31.07
2022-09-01T18:30:04.412Z,31.01
2022-09-01T18:32:34.327Z,31.22
2022-09-01T18:35:08.219Z,31.18
2022-09-01T18:38:02.510Z,31.09
2022-09-01T18:40:33.684Z,31.30
2022-09-01T18:43:22.868Z,30.91
2022-09-01T18:45:57.974Z,30.93
2022-09-01T18:48:44.492Z,31.01
2022-09-01T18:51:26.275Z,30.83
2022-09-01T18:54:26.466Z,31.38
2022-09-01T18:57:05.404Z,30.76
2022-09-01T18:59:45.882Z,31.09
2022-09-01T19:02:27.390Z,31.23
2022-09-01T19:04:59.354Z,31.73
2022-09-01T19:07:42.704Z,31.20
2022-09-01T19:10:28.620Z,31.42
2022-09-01T19:13:09.755Z,30.92
2022-09-01T19:15:43.640Z,30.74
2022-09-01T19:18:37.591Z,30.58
2022-09-01T19:21:09.714Z,30.72
2022-09-01T19:24:13.508Z,30.36
2022-09-01T19:26:50.242Z,30.54
2022-09-01T19:29:28.282Z,30.70
2022-09-01T19:32:01.891Z,30.39
2022-09-01T19:34:41.315Z,30.30
2022-09-01T19:37:07.924Z,30.32
2022-09-01T19:39:38.156Z,30.42
2022-09-01T19:42:30.481Z,30.03
2022-09-01T19:45:36.098Z,30.00
2022-09-01T19:48:47.922Z,30.13
2022-09-01T19:51:20.608Z,29.88
2022-09-01T19:54:01.368Z,29.92
2022-09-01T19:56:49.773Z,30.03
2022-09-01T19:59:37.879Z,29.87
2022-09-01T20:02:21.330Z,30.37
2022-09-01T20:04:57.246Z,30.05
2022-09-01T20:07:39.805Z,29.67
2022-09-01T20:10:16.608Z,30.00
2022-09-01T20:13:03.509Z,29.76
2022-09-01T20:15:43.590Z,29.86
2022-09-01T20:18:23.214Z,30.21
2022-09-01T20:20:50.959Z,29.97
2022-09-01T20:23:32.439Z,30.13
2022-09-01T20:26:04.059Z,29.98
2022-09-01T20:28:57.568Z,30.07
2022-09-01T20:31:35.767Z,30.12
2022-09-01T20:34:30.672Z,30.13
2022-09-01T20:37:10.247Z,30.19
2022-09-01T20:39:55.526Z,30.46
2022-09-01T20:42:34.033Z,30.04
2022-09-01T20:45:10.435Z,30.18
2022-09-01T20:47:36.908Z,30.71
2022-09-01T20:50:10.823Z,30.31
2022-09-01T20:52:48.888Z,30.29
2022-09-01T20:55:30.531Z,30.35
2022-09-01T20:58:12.353Z,30.28
2022-09-01T21:00:53.846Z,30.29
2022-09-01T21:03:37.167Z,30.30
2022-09-01T21:06:26.012Z,30.55
2022-09-01T21:09:10.296Z,30.32
2022-09-01T21:11:57.578Z,30.39
2022-09-01T21:15:25.680Z,30.58
2022-09-01T21:18:02.556Z,30.46
2022-09-01T21:20:59.924Z,30.71
2022-09-01T21:23:28.708Z,30.99
2022-09-01T21:25:56.202Z,30.63
2022-09-01T21:28:26.322Z,31.03
2022-09-01T21:30:55.057Z,30.99
2022-09-01T21:33:22.625Z,30.78
2022-09-01T21:35:50.083Z,30.84
2022-09-01T21:38:17.124Z,30.86
2022-09-01T21:40:44.616Z,30.80
2022-09-01T21:43:17.424Z,30.80
2022-09-01T21:45:44.161Z,31.06
2022-09-01T21:48:11.724Z,30.81
2022-09-01T21:50:40.355Z,30.92
2022-09-01T21:53:08.782Z,31.04
2022-09-01T21:55:36.051Z,30.97
2022-09-01T21:58:03.546Z,31.10
2022-09-01T22:00:33.123Z,31.15
2022-09-01T22:03:01.845Z,31.17
2022-09-01T22:05:31.077Z,31.23
2022-09-01T22:07:58.424Z,31.15
2022-09-01T22:10:28.024Z,31.13
2022-09-01T22:12:55.827Z,31.47
2022-09-01T22:15:25.343Z,31.38
2022-09-01T22:17:53.510Z,31.29
2022-09-01T22:20:24.958Z,31.22
2022-09-01T22:22:51.823Z,31.28
2022-09-01T22:25:20.832Z,31.49
2022-09-01T22:27:47.406Z,31.24
2022-09-01T22:30:15.012Z,31.36
2022-09-01T22:32:47.448Z,31.11
2022-09-01T22:35:15.708Z,31.58
2022-09-01T22:37:42.399Z,31.41
2022-09-01T22:40:09.641Z,31.50
2022-09-01T22:42:36.233Z,31.54
2022-09-01T22:45:04.167Z,31.46
2022-09-01T22:47:30.599Z,31.23
2022-09-01T22:50:01.895Z,31.54
2022-09-01T22:52:29.860Z,31.22
2022-09-01T22:54:57.191Z,31.51
2022-09-01T22:57:24.716Z,31.54
2022-09-01T22:59:51.191Z,31.26
2022-09-01T23:02:19.376Z,31.69
2022-09-01T23:04:46.628Z,31.52
2022-09-01T23:07:13.266Z,31.57
2022-09-01T23:09:40.131Z,31.57
2022-09-01T23:12:06.927Z,31.63
2022-09-01T23:14:33.439Z,31.58
2022-09-01T23:16:59.948Z,31.56
2022-09-01T23:19:26.491Z,31.40
2022-09-01T23:21:53.298Z,31.59
2022-09-01T23:24:20.182Z,31.61
2022-09-01T23:26:47.944Z,31.54
2022-09-01T23:29:14.482Z,31.66
2022-09-01T23:31:41.232Z,31.30
2022-09-01T23:34:08.435Z,31.46
2022-09-01T23:36:35.810Z,31.55
2022-09-01T23:39:03.369Z,31.77
2022-09-01T23:41:31.836Z,31.61
2022-09-01T23:44:01.472Z,31.74
2022-09-01T23:46:30.682Z,31.65
2022-09-01T23:48:57.908Z,31.67
2022-09-01T23:51:25.325Z,31.67
2022-09-01T23:53:52.548Z,31.55
2022-09-01T23:56:22.388Z,31.85
2022-09-01T23:58:49.727Z,31.58
